createdAt,value
2017-12-12T00:00:22.985Z,94.72
2017-12-12T00:01:28.974Z,94.28
2017-12-12T00:02:34.975Z,94.42
2017-12-12T00:03:41.216Z,94.29
2017-12-12T00:04:47.372Z,94.09
2017-12-12T00:05:53.361Z,94.30
2017-12-12T00:06:59.539Z,94.38
2017-12-12T00:08:05.781Z,94.13
2017-12-12T00:09:12.157Z,94.24
2017-12-12T00:10:18.364Z,93.84
2017-12-12T00:11:30.161Z,93.84
2017-12-12T00:12:35.900Z,94.05
2017-12-12T00:13:42.110Z,93.91
2017-12-12T00:14:48.279Z,93.86
2017-12-12T00:15:54.503Z,94.16
2017-12-12T00:17:00.707Z,94.05
2017-12-12T00:18:06.911Z,93.80
2017-12-12T00:19:14.036Z,93.80
2017-12-12T00:20:20.218Z,93.76
2017-12-12T00:21:26.423Z,93.69
2017-12-12T00:22:42.823Z,93.38
2017-12-12T00:23:52.994Z,92.96
2017-12-12T00:24:59.144Z,93.15
2017-12-12T00:26:05.328Z,92.90
2017-12-12T00:27:11.537Z,92.99
2017-12-12T00:28:17.867Z,92.63
2017-12-12T00:29:25.647Z,92.75
2017-12-12T00:30:31.830Z,92.73
2017-12-12T00:31:38.060Z,92.55
2017-12-12T00:32:44.269Z,92.47
2017-12-12T00:33:50.508Z,92.74
2017-12-12T00:34:56.431Z,92.46
2017-12-12T00:36:03.102Z,92.28
2017-12-12T00:37:09.327Z,92.24
2017-12-12T00:38:15.733Z,92.24
2017-12-12T00:39:21.917Z,92.23
2017-12-12T00:40:28.064Z,92.48
2017-12-12T00:41:34.259Z,92.46
2017-12-12T00:42:40.084Z,92.47
2017-12-12T00:43:51.536Z,92.43
2017-12-12T00:44:57.694Z,92.53
2017-12-12T00:46:03.876Z,92.61
2017-12-12T00:47:10.035Z,92.59
2017-12-12T00:48:17.288Z,92.57
2017-12-12T00:49:23.479Z,92.77
2017-12-12T00:50:29.651Z,92.89
2017-12-12T00:51:35.807Z,93.01
2017-12-12T00:52:41.978Z,92.62
2017-12-12T00:53:50.076Z,92.67
2017-12-12T00:54:56.245Z,92.47
2017-12-12T00:56:05.263Z,92.55
2017-12-12T00:57:11.413Z,92.41
2017-12-12T00:58:18.023Z,92.58
2017-12-12T00:59:24.270Z,92.40
2017-12-12T01:00:31.005Z,92.34
2017-12-12T01:01:37.339Z,92.17
2017-12-12T01:02:43.226Z,92.12
2017-12-12T01:03:49.443Z,92.20
2017-12-12T01:04:55.599Z,92.19
2017-12-12T01:06:07.051Z,91.90
2017-12-12T01:07:13.042Z,91.79
2017-12-12T01:08:19.247Z,91.63
2017-12-12T01:09:25.509Z,91.64
2017-12-12T01:10:31.668Z,91.45
2017-12-12T01:11:37.877Z,91.66
2017-12-12T01:12:44.035Z,91.37
2017-12-12T01:13:50.298Z,91.57
2017-12-12T01:14:56.502Z,91.11
2017-12-12T01:16:02.689Z,90.91
2017-12-12T01:17:08.828Z,90.77
2017-12-12T01:18:15.026Z,90.94
2017-12-12T01:19:21.222Z,90.99
2017-12-12T01:20:27.423Z,90.67
2017-12-12T01:21:33.282Z,90.41
2017-12-12T01:22:39.165Z,90.54
2017-12-12T01:23:45.402Z,90.35
2017-12-12T01:24:51.854Z,90.60
2017-12-12T01:25:58.037Z,90.54
2017-12-12T01:27:03.880Z,90.78
2017-12-12T01:28:10.766Z,90.72
2017-12-12T01:29:17.067Z,90.52
2017-12-12T01:30:23.278Z,90.23
2017-12-12T01:31:29.482Z,90.29
2017-12-12T01:32:35.646Z,90.51
2017-12-12T01:33:41.995Z,90.53
2017-12-12T01:34:48.164Z,90.23
2017-12-12T01:35:54.323Z,90.00
2017-12-12T01:37:00.538Z,90.08
2017-12-12T01:38:06.512Z,90.00
2017-12-12T01:39:16.738Z,90.04
2017-12-12T01:40:21.971Z,90.19
2017-12-12T01:41:27.182Z,89.84
2017-12-12T01:42:32.369Z,89.77
2017-12-12T01:43:38.383Z,89.76
2017-12-12T01:44:43.625Z,89.89
2017-12-12T01:45:50.059Z,89.90
2017-12-12T01:46:56.819Z,89.95
2017-12-12T01:48:02.284Z,90.05
2017-12-12T01:49:08.139Z,89.95
2017-12-12T01:50:13.664Z,89.87
2017-12-12T01:51:19.623Z,90.03
2017-12-12T01:52:25.455Z,89.91
2017-12-12T01:53:30.924Z,89.99
2017-12-12T01:54:36.451Z,89.98
2017-12-12T01:55:42.123Z,90.03
2017-12-12T01:56:47.313Z,90.00
2017-12-12T01:57:52.843Z,89.75
2017-12-12T01:58:58.683Z,89.77
2017-12-12T02:00:04.190Z,89.86
2017-12-12T02:01:09.455Z,89.87
2017-12-12T02:02:19.163Z,89.79
2017-12-12T02:03:28.330Z,89.42
2017-12-12T02:04:37.702Z,89.55
2017-12-12T02:05:42.911Z,89.72
2017-12-12T02:06:49.141Z,89.99
2017-12-12T02:07:54.695Z,89.65
2017-12-12T02:09:00.188Z,89.70
2017-12-12T02:10:05.728Z,89.82
2017-12-12T02:11:11.489Z,89.76
2017-12-12T02:12:16.692Z,89.69
2017-12-12T02:13:21.947Z,89.60
2017-12-12T02:14:27.452Z,89.32
2017-12-12T02:15:33.144Z,89.43
2017-12-12T02:16:38.696Z,89.82
2017-12-12T02:17:44.205Z,89.80
2017-12-12T02:18:49.675Z,89.47
2017-12-12T02:19:54.904Z,89.31
2017-12-12T02:21:00.353Z,89.50
2017-12-12T02:22:05.894Z,89.44
2017-12-12T02:23:11.091Z,89.37
2017-12-12T02:24:16.350Z,89.31
2017-12-12T02:25:21.829Z,89.34
2017-12-12T02:26:27.025Z,89.43
2017-12-12T02:27:32.740Z,89.46
2017-12-12T02:28:37.971Z,89.47
2017-12-12T02:29:43.252Z,89.54
2017-12-12T02:30:48.510Z,89.45
2017-12-12T02:31:53.781Z,89.27
2017-12-12T02:32:59.327Z,89.35
2017-12-12T02:34:05.020Z,89.66
2017-12-12T02:35:10.246Z,89.75
2017-12-12T02:36:20.620Z,89.68
2017-12-12T02:37:25.960Z,89.71
2017-12-12T02:38:31.180Z,89.52
2017-12-12T02:39:36.420Z,89.77
2017-12-12T02:40:41.887Z,89.98
2017-12-12T02:41:47.096Z,90.08
2017-12-12T02:42:52.298Z,89.99
2017-12-12T02:43:57.558Z,89.95
2017-12-12T02:45:02.902Z,90.09
2017-12-12T02:46:08.381Z,89.79
2017-12-12T02:47:13.638Z,89.66
2017-12-12T02:48:18.904Z,89.65
2017-12-12T02:49:24.164Z,89.62
2017-12-12T02:50:29.416Z,89.65
2017-12-12T02:51:34.928Z,89.67
2017-12-12T02:52:40.201Z,89.67
2017-12-12T02:53:45.472Z,89.59
2017-12-12T02:54:50.657Z,89.82
2017-12-12T02:55:55.946Z,89.61
2017-12-12T02:57:01.148Z,89.49
2017-12-12T02:58:08.423Z,89.69
2017-12-12T02:59:13.638Z,89.50
2017-12-12T03:00:19.133Z,89.62
2017-12-12T03:01:24.408Z,89.58
2017-12-12T03:02:29.884Z,89.48
2017-12-12T03:03:35.737Z,89.58
2017-12-12T03:04:42.084Z,89.72
2017-12-12T03:05:47.305Z,89.71
2017-12-12T03:06:52.538Z,89.43
2017-12-12T03:07:57.714Z,89.46
2017-12-12T03:09:02.962Z,89.30
2017-12-12T03:10:08.282Z,89.24
2017-12-12T03:11:13.538Z,88.95
2017-12-12T03:12:19.109Z,89.14
2017-12-12T03:13:29.469Z,88.72
2017-12-12T03:14:35.043Z,88.83
2017-12-12T03:15:45.583Z,88.72
2017-12-12T03:16:50.818Z,88.99
2017-12-12T03:17:56.350Z,88.79
2017-12-12T03:19:01.587Z,88.78
2017-12-12T03:20:06.807Z,88.18
2017-12-12T03:21:12.019Z,87.72
2017-12-12T03:22:17.875Z,87.73
2017-12-12T03:23:23.352Z,87.81
2017-12-12T03:24:28.558Z,87.51
2017-12-12T03:25:34.389Z,87.51
2017-12-12T03:26:39.595Z,87.49
2017-12-12T03:27:45.485Z,86.79
2017-12-12T03:28:51.123Z,86.08
2017-12-12T03:29:56.599Z,86.25
2017-12-12T03:31:02.208Z,85.57
2017-12-12T03:32:07.758Z,85.25
2017-12-12T03:33:13.218Z,85.16
2017-12-12T03:34:18.774Z,84.89
2017-12-12T03:35:24.827Z,84.82
2017-12-12T03:36:30.772Z,84.62
2017-12-12T03:37:38.189Z,85.20
2017-12-12T03:38:43.647Z,84.90
2017-12-12T03:39:53.238Z,84.85
2017-12-12T03:41:01.202Z,84.68
2017-12-12T03:42:06.721Z,84.56
2017-12-12T03:43:12.198Z,83.61
2017-12-12T03:44:17.718Z,84.07
2017-12-12T03:45:23.239Z,83.32
2017-12-12T03:46:28.741Z,83.27
2017-12-12T03:47:34.579Z,83.75
2017-12-12T03:48:40.068Z,83.14
2017-12-12T03:49:45.984Z,82.98
2017-12-12T03:50:51.554Z,83.04
2017-12-12T03:51:57.403Z,82.40
2017-12-12T03:53:03.258Z,81.98
2017-12-12T03:54:08.732Z,81.96
2017-12-12T03:55:13.962Z,81.92
2017-12-12T03:56:19.454Z,81.91
2017-12-12T03:57:24.960Z,82.34
2017-12-12T03:58:30.482Z,82.44
2017-12-12T03:59:35.961Z,81.83
2017-12-12T04:00:41.508Z,81.70
2017-12-12T04:01:47.154Z,82.20
2017-12-12T04:02:52.686Z,82.25
2017-12-12T04:03:58.230Z,81.94
2017-12-12T04:05:03.762Z,81.82
2017-12-12T04:06:09.216Z,81.88
2017-12-12T04:07:14.724Z,81.55
2017-12-12T04:08:20.680Z,81.43
2017-12-12T04:09:26.189Z,81.28
2017-12-12T04:10:31.379Z,81.80
2017-12-12T04:11:37.557Z,81.58
2017-12-12T04:12:49.468Z,81.40
2017-12-12T04:13:54.762Z,81.47
2017-12-12T04:15:00.627Z,81.42
2017-12-12T04:16:06.135Z,81.62
2017-12-12T04:17:11.627Z,81.79
2017-12-12T04:18:17.483Z,82.10
2017-12-12T04:19:22.911Z,81.60
2017-12-12T04:20:28.439Z,81.81
2017-12-12T04:21:34.285Z,81.56
2017-12-12T04:22:39.815Z,80.93
2017-12-12T04:23:45.970Z,81.11
2017-12-12T04:24:51.844Z,81.08
2017-12-12T04:25:57.163Z,80.97
2017-12-12T04:27:03.391Z,80.89
2017-12-12T04:28:08.938Z,81.16
2017-12-12T04:29:14.408Z,80.78
2017-12-12T04:30:19.924Z,81.44
2017-12-12T04:31:25.502Z,81.03
2017-12-12T04:32:31.354Z,81.15
2017-12-12T04:33:36.857Z,81.13
2017-12-12T04:34:42.372Z,81.29
2017-12-12T04:35:47.858Z,81.37
2017-12-12T04:36:53.187Z,81.60
2017-12-12T04:37:59.250Z,81.69
2017-12-12T04:39:04.482Z,81.80
2017-12-12T04:40:11.179Z,81.52
2017-12-12T04:41:16.727Z,82.38
2017-12-12T04:42:22.369Z,82.14
2017-12-12T04:43:28.027Z,82.12
2017-12-12T04:44:33.615Z,81.87
2017-12-12T04:45:39.273Z,82.10
2017-12-12T04:46:44.766Z,82.19
2017-12-12T04:47:50.320Z,82.61
2017-12-12T04:48:55.882Z,82.39
2017-12-12T04:50:01.822Z,82.25
2017-12-12T04:51:07.701Z,82.47
2017-12-12T04:52:13.300Z,82.70
2017-12-12T04:53:18.558Z,82.39
2017-12-12T04:54:24.445Z,82.36
2017-12-12T04:55:29.898Z,82.12
2017-12-12T04:56:35.352Z,82.38
2017-12-12T04:57:41.204Z,82.28
2017-12-12T04:58:47.106Z,82.25
2017-12-12T04:59:52.597Z,82.25
2017-12-12T05:01:04.381Z,81.75
2017-12-12T05:02:09.706Z,81.99
2017-12-12T05:03:16.039Z,81.85
2017-12-12T05:04:21.909Z,81.56
2017-12-12T05:05:27.973Z,81.68
2017-12-12T05:06:34.245Z,80.99
2017-12-12T05:07:41.841Z,80.80
2017-12-12T05:08:48.003Z,81.41
2017-12-12T05:09:53.207Z,81.54
2017-12-12T05:10:59.154Z,81.46
2017-12-12T05:12:04.483Z,80.99
2017-12-12T05:13:09.988Z,80.94
2017-12-12T05:14:15.477Z,80.73
2017-12-12T05:15:23.504Z,80.85
2017-12-12T05:16:28.747Z,80.69
2017-12-12T05:17:34.212Z,81.36
2017-12-12T05:18:39.730Z,81.80
2017-12-12T05:19:45.232Z,81.19
2017-12-12T05:20:50.768Z,81.19
2017-12-12T05:21:58.612Z,80.90
2017-12-12T05:23:08.966Z,81.32
2017-12-12T05:24:16.434Z,81.15
2017-12-12T05:25:22.263Z,81.45
2017-12-12T05:26:27.734Z,80.89
2017-12-12T05:27:36.205Z,81.54
2017-12-12T05:28:41.406Z,81.33
2017-12-12T05:29:46.681Z,81.71
2017-12-12T05:30:52.847Z,81.93
2017-12-12T05:31:58.833Z,82.27
2017-12-12T05:33:04.289Z,82.52
2017-12-12T05:34:09.901Z,82.32
2017-12-12T05:35:15.134Z,82.64
2017-12-12T05:36:20.615Z,82.63
2017-12-12T05:37:26.497Z,81.93
2017-12-12T05:38:39.174Z,81.92
2017-12-12T05:39:44.691Z,81.75
2017-12-12T05:40:50.211Z,82.09
2017-12-12T05:41:56.061Z,82.03
2017-12-12T05:43:01.552Z,81.68
2017-12-12T05:44:07.593Z,81.28
2017-12-12T05:45:14.436Z,81.11
2017-12-12T05:46:20.559Z,80.95
2017-12-12T05:47:26.437Z,80.69
2017-12-12T05:48:32.327Z,80.48
2017-12-12T05:49:38.159Z,80.88
2017-12-12T05:50:43.706Z,80.58
2017-12-12T05:51:52.995Z,80.46
2017-12-12T05:52:59.160Z,80.60
2017-12-12T05:54:04.720Z,80.59
2017-12-12T05:55:10.562Z,80.40
2017-12-12T05:56:16.073Z,80.67
2017-12-12T05:57:22.006Z,79.71
2017-12-12T05:58:27.502Z,79.49
2017-12-12T05:59:32.973Z,79.92
2017-12-12T06:00:39.131Z,79.86
2017-12-12T06:01:44.376Z,79.99
2017-12-12T06:02:54.139Z,79.30
2017-12-12T06:04:04.289Z,78.85
2017-12-12T06:05:13.058Z,79.16
2017-12-12T06:06:19.740Z,79.36
2017-12-12T06:07:27.344Z,79.19
2017-12-12T06:08:35.618Z,78.79
2017-12-12T06:09:42.424Z,78.69
2017-12-12T06:10:49.783Z,79.04
2017-12-12T06:11:58.963Z,79.04
2017-12-12T06:13:07.195Z,79.33
2017-12-12T06:14:15.265Z,79.25
2017-12-12T06:15:21.765Z,79.75
2017-12-12T06:16:29.578Z,78.93
2017-12-12T06:17:36.879Z,78.61
2017-12-12T06:18:45.478Z,78.69
2017-12-12T06:19:52.917Z,78.83
2017-12-12T06:21:03.944Z,78.50
2017-12-12T06:22:13.815Z,78.50
2017-12-12T06:23:20.718Z,78.32
2017-12-12T06:24:31.288Z,78.05
2017-12-12T06:25:38.947Z,78.07
2017-12-12T06:26:47.543Z,77.47
2017-12-12T06:27:55.160Z,77.44
2017-12-12T06:29:03.562Z,77.45
2017-12-12T06:30:12.566Z,77.15
2017-12-12T06:31:20.516Z,78.05
2017-12-12T06:32:27.588Z,78.51
2017-12-12T06:33:35.297Z,78.68
2017-12-12T06:34:42.110Z,79.69
2017-12-12T06:35:49.297Z,81.09
2017-12-12T06:36:58.834Z,82.46
2017-12-12T06:38:06.748Z,83.19
2017-12-12T06:39:13.962Z,83.49
2017-12-12T06:40:20.681Z,82.81
2017-12-12T06:41:27.088Z,81.99
2017-12-12T06:42:32.561Z,81.59
2017-12-12T06:43:44.080Z,80.81
2017-12-12T06:44:49.923Z,79.98
2017-12-12T06:45:56.085Z,79.35
2017-12-12T06:47:03.051Z,79.40
2017-12-12T06:48:13.118Z,78.51
2017-12-12T06:49:22.891Z,77.86
2017-12-12T06:50:28.436Z,77.21
2017-12-12T06:51:34.312Z,77.75
2017-12-12T06:52:39.806Z,76.48
2017-12-12T06:53:45.311Z,76.29
2017-12-12T06:54:50.824Z,76.28
2017-12-12T06:55:56.123Z,76.29
2017-12-12T06:57:01.989Z,74.72
2017-12-12T06:58:07.481Z,74.87
2017-12-12T06:59:13.024Z,74.36
2017-12-12T07:00:18.632Z,74.60
2017-12-12T07:01:24.284Z,74.81
2017-12-12T07:02:29.793Z,74.88
2017-12-12T07:03:35.372Z,75.40
2017-12-12T07:04:41.317Z,75.09
2017-12-12T07:05:46.904Z,75.04
2017-12-12T07:06:52.751Z,76.09
2017-12-12T07:07:58.281Z,75.98
2017-12-12T07:09:04.152Z,75.23
2017-12-12T07:10:09.625Z,75.30
2017-12-12T07:11:14.930Z,75.64
2017-12-12T07:12:20.484Z,76.07
2017-12-12T07:13:25.733Z,76.01
2017-12-12T07:14:31.595Z,75.68
2017-12-12T07:15:37.107Z,76.08
2017-12-12T07:16:42.644Z,75.49
2017-12-12T07:17:48.550Z,75.46
2017-12-12T07:18:54.070Z,75.01
2017-12-12T07:20:03.644Z,75.05
2017-12-12T07:21:09.225Z,75.34
2017-12-12T07:22:15.438Z,75.39
2017-12-12T07:23:21.395Z,75.22
2017-12-12T07:24:27.568Z,75.61
2017-12-12T07:25:33.820Z,75.13
2017-12-12T07:26:40.079Z,75.42
2017-12-12T07:27:46.322Z,75.79
2017-12-12T07:28:52.308Z,75.06
2017-12-12T07:29:58.206Z,75.46
2017-12-12T07:31:04.558Z,75.30
2017-12-12T07:32:10.817Z,74.84
2017-12-12T07:33:17.056Z,75.54
2017-12-12T07:34:22.603Z,75.18
2017-12-12T07:35:28.812Z,75.81
2017-12-12T07:36:38.909Z,75.49
2017-12-12T07:37:44.820Z,75.67
2017-12-12T07:38:51.014Z,76.05
2017-12-12T07:39:57.255Z,76.31
2017-12-12T07:41:03.410Z,75.94
2017-12-12T07:42:09.623Z,76.35
2017-12-12T07:43:15.831Z,76.47
2017-12-12T07:44:22.027Z,75.99
2017-12-12T07:45:27.877Z,75.61
2017-12-12T07:46:34.547Z,75.52
2017-12-12T07:47:40.409Z,75.89
2017-12-12T07:48:46.587Z,75.55
2017-12-12T07:49:52.445Z,75.71
2017-12-12T07:50:58.333Z,75.53
2017-12-12T07:52:04.193Z,75.27
2017-12-12T07:53:10.045Z,75.95
2017-12-12T07:54:16.290Z,76.40
2017-12-12T07:55:22.223Z,76.47
2017-12-12T07:56:28.388Z,76.03
2017-12-12T07:57:34.618Z,76.41
2017-12-12T07:58:40.089Z,76.07
2017-12-12T07:59:46.539Z,76.07
2017-12-12T08:00:52.098Z,75.92
2017-12-12T08:01:58.326Z,76.57
2017-12-12T08:03:05.021Z,76.70
2017-12-12T08:04:11.328Z,76.82
2017-12-12T08:05:16.877Z,77.72
2017-12-12T08:06:23.169Z,79.23
2017-12-12T08:07:28.711Z,80.24
2017-12-12T08:08:34.942Z,80.67
2017-12-12T08:09:40.511Z,81.54
2017-12-12T08:10:46.377Z,82.82
2017-12-12T08:11:52.731Z,83.23
2017-12-12T08:12:58.609Z,84.10
2017-12-12T08:14:04.811Z,84.82
2017-12-12T08:15:10.374Z,84.71
2017-12-12T08:16:16.228Z,84.36
2017-12-12T08:17:22.523Z,83.89
2017-12-12T08:18:28.737Z,83.82
2017-12-12T08:19:35.011Z,83.82
2017-12-12T08:20:40.883Z,82.39
2017-12-12T08:21:47.675Z,82.04
2017-12-12T08:22:53.979Z,81.52
2017-12-12T08:24:00.235Z,81.70
2017-12-12T08:25:06.136Z,81.35
2017-12-12T08:26:12.376Z,81.75
2017-12-12T08:27:18.614Z,80.96
2017-12-12T08:28:24.530Z,80.90
2017-12-12T08:29:30.815Z,80.97
2017-12-12T08:30:37.031Z,80.07
2017-12-12T08:31:43.022Z,79.82
2017-12-12T08:32:52.386Z,79.74
2017-12-12T08:33:58.334Z,80.09
2017-12-12T08:35:04.550Z,79.91
2017-12-12T08:36:10.861Z,79.28
2017-12-12T08:37:17.108Z,79.40
2017-12-12T08:38:23.356Z,79.39
2017-12-12T08:39:29.587Z,79.50
2017-12-12T08:40:35.859Z,79.24
2017-12-12T08:41:42.120Z,79.76
2017-12-12T08:42:48.312Z,79.83
2017-12-12T08:43:54.539Z,79.64
2017-12-12T08:45:00.721Z,79.25
2017-12-12T08:46:06.906Z,79.01
2017-12-12T08:47:13.206Z,79.18
2017-12-12T08:48:19.546Z,78.92
2017-12-12T08:49:32.237Z,78.75
2017-12-12T08:50:40.208Z,79.36
2017-12-12T08:51:46.194Z,79.53
2017-12-12T08:52:52.388Z,79.62
2017-12-12T08:53:58.571Z,80.08
2017-12-12T08:55:04.787Z,79.92
2017-12-12T08:56:10.974Z,80.20
2017-12-12T08:57:17.241Z,80.25
2017-12-12T08:58:23.480Z,80.26
2017-12-12T08:59:29.666Z,79.69
2017-12-12T09:00:35.868Z,79.54
2017-12-12T09:01:41.825Z,79.55
2017-12-12T09:02:48.046Z,78.86
2017-12-12T09:03:54.275Z,79.49
2017-12-12T09:05:00.503Z,79.78
2017-12-12T09:06:06.731Z,79.77
2017-12-12T09:07:12.992Z,79.33
2017-12-12T09:08:19.212Z,79.72
2017-12-12T09:09:25.438Z,79.40
2017-12-12T09:10:31.604Z,79.72
2017-12-12T09:11:38.220Z,79.85
2017-12-12T09:12:44.574Z,79.43
2017-12-12T09:13:50.800Z,78.94
2017-12-12T09:14:56.983Z,78.69
2017-12-12T09:16:03.404Z,79.20
2017-12-12T09:17:09.842Z,79.05
2017-12-12T09:18:16.010Z,78.90
2017-12-12T09:19:21.876Z,78.37
2017-12-12T09:20:27.726Z,78.69
2017-12-12T09:21:33.620Z,78.56
2017-12-12T09:22:39.822Z,78.63
2017-12-12T09:23:46.095Z,78.77
2017-12-12T09:24:52.283Z,78.82
2017-12-12T09:25:58.506Z,78.39
2017-12-12T09:27:04.664Z,78.31
2017-12-12T09:28:10.472Z,78.16
2017-12-12T09:29:16.399Z,77.60
2017-12-12T09:30:22.585Z,77.44
2017-12-12T09:31:28.784Z,77.20
2017-12-12T09:32:34.985Z,76.37
2017-12-12T09:33:41.263Z,76.25
2017-12-12T09:34:47.489Z,76.15
2017-12-12T09:35:53.678Z,76.03
2017-12-12T09:36:59.909Z,75.99
2017-12-12T09:38:06.062Z,75.64
2017-12-12T09:39:11.919Z,75.74
2017-12-12T09:40:17.474Z,75.44
2017-12-12T09:41:23.317Z,76.15
2017-12-12T09:42:34.073Z,75.64
2017-12-12T09:43:39.914Z,75.57
2017-12-12T09:44:49.741Z,75.72
2017-12-12T09:45:55.976Z,75.31
2017-12-12T09:47:02.149Z,75.22
2017-12-12T09:48:08.297Z,75.33
2017-12-12T09:49:14.129Z,75.15
2017-12-12T09:50:20.043Z,74.53
2017-12-12T09:51:25.937Z,74.93
2017-12-12T09:52:31.870Z,74.36
2017-12-12T09:53:37.359Z,74.70
2017-12-12T09:54:43.523Z,74.54
2017-12-12T09:55:49.731Z,74.27
2017-12-12T09:56:55.925Z,74.30
2017-12-12T09:58:02.146Z,74.31
2017-12-12T09:59:08.026Z,73.62
2017-12-12T10:00:13.885Z,73.57
2017-12-12T10:01:21.840Z,73.95
2017-12-12T10:02:27.655Z,74.10
2017-12-12T10:03:33.532Z,74.15
2017-12-12T10:04:39.410Z,73.90
2017-12-12T10:05:45.237Z,73.41
2017-12-12T10:06:51.465Z,73.04
2017-12-12T10:07:57.271Z,72.75
2017-12-12T10:09:02.801Z,72.73
2017-12-12T10:10:08.721Z,72.77
2017-12-12T10:11:14.530Z,72.39
2017-12-12T10:12:20.685Z,72.42
2017-12-12T10:13:31.562Z,71.87
2017-12-12T10:14:37.771Z,72.17
2017-12-12T10:15:43.972Z,71.97
2017-12-12T10:16:49.882Z,71.95
2017-12-12T10:17:55.703Z,72.04
2017-12-12T10:19:05.304Z,72.78
2017-12-12T10:20:12.581Z,72.81
2017-12-12T10:21:20.189Z,72.79
2017-12-12T10:22:28.834Z,72.04
2017-12-12T10:23:35.967Z,72.52
2017-12-12T10:24:43.332Z,73.29
2017-12-12T10:25:50.068Z,73.10
2017-12-12T10:26:56.360Z,72.93
2017-12-12T10:28:02.586Z,73.12
2017-12-12T10:29:10.737Z,73.34
2017-12-12T10:30:17.420Z,73.48
2017-12-12T10:31:28.672Z,73.30
2017-12-12T10:32:36.086Z,72.78
2017-12-12T10:33:49.850Z,72.42
2017-12-12T10:34:57.498Z,72.16
2017-12-12T10:36:05.192Z,72.54
2017-12-12T10:37:13.037Z,72.58
2017-12-12T10:38:20.021Z,72.34
2017-12-12T10:39:26.209Z,72.17
2017-12-12T10:40:32.668Z,71.69
2017-12-12T10:41:40.499Z,71.60
2017-12-12T10:42:47.605Z,72.12
2017-12-12T10:43:54.071Z,72.10
2017-12-12T10:45:01.783Z,72.31
2017-12-12T10:46:09.306Z,72.47
2017-12-12T10:47:16.120Z,72.48
2017-12-12T10:48:23.302Z,72.20
2017-12-12T10:49:31.533Z,71.88
2017-12-12T10:50:38.420Z,72.12
2017-12-12T10:51:47.569Z,72.17
2017-12-12T10:53:03.230Z,72.33
2017-12-12T10:54:11.292Z,72.83
2017-12-12T10:55:17.750Z,72.61
2017-12-12T10:56:25.143Z,72.62
2017-12-12T10:57:34.506Z,73.14
2017-12-12T10:58:42.057Z,72.53
2017-12-12T10:59:49.849Z,72.69
2017-12-12T11:00:57.685Z,72.26
2017-12-12T11:02:06.949Z,72.64
2017-12-12T11:03:14.107Z,72.71
2017-12-12T11:04:23.031Z,72.50
2017-12-12T11:06:43.990Z,72.93
2017-12-12T11:07:52.508Z,72.70
2017-12-12T11:08:59.894Z,72.82
2017-12-12T11:10:08.026Z,73.17
2017-12-12T11:11:17.252Z,73.29
2017-12-12T11:12:24.408Z,72.77
2017-12-12T11:13:35.718Z,72.27
2017-12-12T11:14:43.305Z,72.28
2017-12-12T11:15:54.768Z,71.80
2017-12-12T11:17:02.115Z,71.73
2017-12-12T11:18:09.551Z,71.34
2017-12-12T11:19:17.583Z,71.23
2017-12-12T11:20:25.247Z,71.19
2017-12-12T11:21:32.888Z,70.27
2017-12-12T11:22:40.776Z,70.29
2017-12-12T11:23:48.329Z,70.38
2017-12-12T11:24:56.756Z,70.44
2017-12-12T11:26:03.409Z,71.08
2017-12-12T11:27:09.794Z,71.09
2017-12-12T11:28:17.031Z,70.66
2017-12-12T11:29:24.044Z,70.17
2017-12-12T11:30:31.240Z,70.23
2017-12-12T11:31:38.848Z,70.19
2017-12-12T11:32:47.616Z,70.31
2017-12-12T11:33:56.111Z,70.39
2017-12-12T11:35:04.294Z,69.86
2017-12-12T11:36:11.718Z,70.23
2017-12-12T11:37:25.760Z,69.81
2017-12-12T11:38:33.471Z,70.14
2017-12-12T11:39:41.886Z,69.73
2017-12-12T11:40:53.689Z,69.65
2017-12-12T11:42:06.228Z,69.54
2017-12-12T11:43:14.295Z,69.14
2017-12-12T11:44:22.815Z,69.08
2017-12-12T11:45:30.778Z,69.19
2017-12-12T11:46:39.165Z,69.32
2017-12-12T11:47:48.595Z,69.34
2017-12-12T11:48:57.125Z,69.74
2017-12-12T11:50:04.429Z,69.59
2017-12-12T11:51:12.068Z,69.79
2017-12-12T11:52:19.054Z,69.21
2017-12-12T11:53:27.732Z,68.82
2017-12-12T11:54:34.351Z,68.49
2017-12-12T11:55:42.759Z,68.96
2017-12-12T11:56:51.288Z,68.29
2017-12-12T11:58:00.940Z,68.78
2017-12-12T11:59:08.375Z,68.20
2017-12-12T12:00:15.815Z,68.25
2017-12-12T12:01:23.021Z,68.42
2017-12-12T12:02:30.784Z,67.61
2017-12-12T12:03:39.350Z,67.03
2017-12-12T12:04:48.918Z,67.30
2017-12-12T12:05:58.167Z,68.06
2017-12-12T12:07:05.690Z,67.64
2017-12-12T12:08:14.640Z,68.27
2017-12-12T12:09:23.011Z,68.01
2017-12-12T12:10:31.952Z,68.55
2017-12-12T12:11:38.986Z,67.86
2017-12-12T12:12:47.275Z,67.94
2017-12-12T12:13:58.561Z,67.53
2017-12-12T12:15:06.552Z,67.98
2017-12-12T12:16:14.217Z,67.77
2017-12-12T12:17:22.254Z,67.33
2017-12-12T12:18:29.289Z,67.47
2017-12-12T12:19:36.956Z,67.17
2017-12-12T12:20:43.871Z,66.89
2017-12-12T12:21:51.292Z,66.76
2017-12-12T12:22:58.904Z,67.50
2017-12-12T12:24:07.015Z,67.93
2017-12-12T12:25:14.183Z,67.20
2017-12-12T12:26:23.770Z,67.42
2017-12-12T12:27:32.406Z,67.44
2017-12-12T12:28:43.104Z,67.98
2017-12-12T12:29:51.533Z,68.19
2017-12-12T12:30:59.111Z,67.42
2017-12-12T12:32:08.928Z,67.98
2017-12-12T12:33:16.736Z,68.03
2017-12-12T12:34:26.589Z,68.08
2017-12-12T12:35:34.354Z,68.00
2017-12-12T12:36:43.772Z,67.90
2017-12-12T12:37:52.522Z,68.31
2017-12-12T12:38:59.356Z,67.67
2017-12-12T12:40:05.689Z,67.96
2017-12-12T12:41:13.061Z,68.00
2017-12-12T12:42:19.709Z,68.22
2017-12-12T12:43:26.647Z,68.52
2017-12-12T12:44:33.572Z,68.50
2017-12-12T12:45:41.690Z,68.95
2017-12-12T12:46:48.528Z,69.16
2017-12-12T12:47:58.136Z,69.15
2017-12-12T12:49:05.728Z,69.51
2017-12-12T12:50:13.805Z,69.66
2017-12-12T12:51:21.605Z,69.48
2017-12-12T12:52:28.220Z,69.47
2017-12-12T12:53:35.308Z,69.71
2017-12-12T12:54:50.133Z,69.73
2017-12-12T12:56:02.321Z,70.28
2017-12-12T12:57:09.530Z,70.14
2017-12-12T12:58:16.938Z,70.42
2017-12-12T12:59:24.295Z,70.09
2017-12-12T13:00:32.573Z,70.05
2017-12-12T13:01:39.235Z,70.29
2017-12-12T13:02:46.909Z,70.10
2017-12-12T13:03:57.925Z,69.74
2017-12-12T13:05:04.973Z,69.98
2017-12-12T13:06:12.517Z,69.98
2017-12-12T13:07:19.980Z,70.35
2017-12-12T13:08:27.322Z,70.44
2017-12-12T13:09:34.922Z,70.60
2017-12-12T13:10:42.197Z,70.48
2017-12-12T13:11:49.481Z,70.76
2017-12-12T13:12:56.608Z,71.30
2017-12-12T13:14:04.903Z,71.24
2017-12-12T13:15:13.243Z,70.67
2017-12-12T13:16:22.484Z,70.93
2017-12-12T13:17:29.508Z,70.92
2017-12-12T13:19:51.920Z,70.08
2017-12-12T13:20:59.067Z,70.52
2017-12-12T13:22:06.496Z,70.25
2017-12-12T13:23:13.779Z,70.37
2017-12-12T13:24:20.970Z,70.78
2017-12-12T13:25:27.300Z,70.27
2017-12-12T13:26:33.643Z,70.42
2017-12-12T13:27:39.903Z,70.45
2017-12-12T13:28:46.116Z,70.29
2017-12-12T13:29:52.386Z,70.83
2017-12-12T13:30:58.668Z,70.59
2017-12-12T13:32:04.877Z,70.84
2017-12-12T13:33:11.155Z,70.42
2017-12-12T13:34:18.278Z,69.99
2017-12-12T13:35:24.169Z,70.15
2017-12-12T13:36:30.639Z,70.19
2017-12-12T13:37:36.951Z,70.23
2017-12-12T13:38:43.189Z,70.33
2017-12-12T13:39:49.437Z,69.47
2017-12-12T13:40:55.345Z,70.08
2017-12-12T13:42:01.617Z,70.11
2017-12-12T13:43:08.266Z,69.90
2017-12-12T13:44:14.542Z,69.96
2017-12-12T13:45:20.785Z,69.78
2017-12-12T13:46:27.038Z,69.76
2017-12-12T13:47:32.915Z,69.92
2017-12-12T13:48:39.483Z,69.91
2017-12-12T13:49:45.388Z,69.42
2017-12-12T13:50:51.634Z,69.64
2017-12-12T13:51:57.869Z,69.83
2017-12-12T13:53:04.460Z,70.02
2017-12-12T13:54:10.686Z,69.71
2017-12-12T13:55:16.920Z,69.44
2017-12-12T13:56:23.956Z,69.65
2017-12-12T13:57:30.167Z,69.56
2017-12-12T13:58:36.666Z,69.27
2017-12-12T13:59:42.939Z,69.35
2017-12-12T14:00:49.149Z,69.48
2017-12-12T14:01:55.124Z,69.38
2017-12-12T14:03:01.351Z,69.19
2017-12-12T14:04:07.602Z,69.53
2017-12-12T14:05:13.837Z,69.31
2017-12-12T14:06:20.045Z,68.84
2017-12-12T14:07:26.297Z,69.23
2017-12-12T14:08:33.378Z,68.62
2017-12-12T14:09:39.671Z,68.60
2017-12-12T14:10:47.041Z,68.89
2017-12-12T14:11:53.227Z,69.28
2017-12-12T14:12:59.425Z,68.57
2017-12-12T14:14:05.642Z,68.94
2017-12-12T14:15:11.485Z,69.00
2017-12-12T14:16:17.723Z,68.69
2017-12-12T14:17:23.537Z,68.57
2017-12-12T14:18:29.705Z,68.84
2017-12-12T14:19:35.889Z,68.42
2017-12-12T14:20:42.269Z,68.63